Time;durP1;ratioP1;P1;durP2;ratioP2;P2;SDS_P1;SDS_P2;PMS_P1;PMS_P2;Temp;Humidity;BMP_temperature;BMP_pressure;BME280_temperature;BME280_humidity;BME280_pressure;Samples;Min_cycle;Max_cycle;Signal;HPM_P1;HPM_P2
2022/02/17 00:01:53;;;;;;;10.45;4.18;;;18.20;67.30;;;;;;5026998;28;20029;-64
2022/02/17 00:04:18;;;;;;;11.68;4.10;;;18.20;67.30;;;;;;5026987;28;20021;-64
2022/02/17 00:06:44;;;;;;;11.30;4.28;;;18.20;67.30;;;;;;5026755;28;20033;-64
2022/02/17 00:09:10;;;;;;;11.10;4.47;;;18.20;67.20;;;;;;5027477;28;20036;-64
2022/02/17 00:11:39;;;;;;;9.18;3.70;;;18.20;67.30;;;;;;5029215;28;20072;-64
2022/02/17 00:14:05;;;;;;;9.52;3.55;;;18.20;67.20;;;;;;5030111;28;20052;-64
2022/02/17 00:16:30;;;;;;;13.40;4.20;;;18.10;67.10;;;;;;5031038;28;20025;-64
2022/02/17 00:18:56;;;;;;;10.15;3.63;;;18.20;67.20;;;;;;5029628;28;20077;-64
2022/02/17 00:21:22;;;;;;;11.32;3.90;;;18.10;67.30;;;;;;5030383;28;20669;-64
2022/02/17 00:23:48;;;;;;;12.75;4.25;;;18.10;67.20;;;;;;5032853;28;20026;-64
2022/02/17 00:26:13;;;;;;;9.57;3.65;;;18.10;67.20;;;;;;5028800;28;20069;-64
2022/02/17 00:28:39;;;;;;;10.65;4.03;;;18.10;67.30;;;;;;5027899;28;20033;-63
2022/02/17 00:31:05;;;;;;;8.52;3.58;;;18.10;67.30;;;;;;5030261;28;20058;-64
2022/02/17 00:33:32;;;;;;;9.80;3.90;;;18.10;67.30;;;;;;5030686;28;20084;-64
2022/02/17 00:35:58;;;;;;;9.18;3.50;;;18.10;67.30;;;;;;5032854;28;20032;-64
2022/02/17 00:38:23;;;;;;;10.50;3.95;;;18.10;67.30;;;;;;5031293;28;20417;-64
2022/02/17 00:40:49;;;;;;;10.27;3.90;;;18.00;67.30;;;;;;5030051;28;20482;-63
2022/02/17 00:43:15;;;;;;;12.98;4.32;;;18.00;67.30;;;;;;5030579;28;20580;-63
2022/02/17 00:45:40;;;;;;;10.82;3.80;;;18.00;67.20;;;;;;5029326;28;20040;-64
2022/02/17 00:48:06;;;;;;;10.52;3.92;;;18.00;67.20;;;;;;5031661;28;20389;-64
2022/02/17 00:50:33;;;;;;;10.45;3.33;;;18.00;67.10;;;;;;5032308;28;20065;-64
2022/02/17 00:52:58;;;;;;;11.18;3.75;;;18.00;67.20;;;;;;5029907;28;20155;-63
2022/02/17 00:55:24;;;;;;;10.35;3.60;;;18.00;67.10;;;;;;5030049;28;20057;-64
2022/02/17 00:57:49;;;;;;;9.82;3.42;;;18.00;67.10;;;;;;5028986;28;20021;-64
2022/02/17 01:00:15;;;;;;;10.40;3.53;;;18.00;67.10;;;;;;5030620;28;20091;-64
2022/02/17 01:02:41;;;;;;;10.85;4.05;;;18.00;67.10;;;;;;5030031;28;20091;-64
2022/02/17 01:05:07;;;;;;;11.63;3.75;;;18.00;67.10;;;;;;5059682;28;20444;-64
2022/02/17 01:07:33;;;;;;;11.38;3.60;;;18.00;67.10;;;;;;5028392;28;20017;-64
2022/02/17 01:09:58;;;;;;;9.45;3.50;;;18.00;67.10;;;;;;5030056;28;20033;-65
2022/02/17 01:12:24;;;;;;;10.93;3.63;;;18.00;67.00;;;;;;5030018;28;20033;-64
2022/02/17 01:14:49;;;;;;;10.85;3.67;;;17.90;67.00;;;;;;5032535;28;20113;-64
2022/02/17 01:17:15;;;;;;;11.43;3.83;;;18.00;67.10;;;;;;5029801;28;20155;-63
2022/02/17 01:19:41;;;;;;;9.57;3.50;;;17.90;67.00;;;;;;5029645;28;20079;-64
2022/02/17 01:22:06;;;;;;;11.00;3.67;;;17.90;67.00;;;;;;5028079;28;20075;-64
2022/02/17 01:24:32;;;;;;;10.68;3.70;;;17.90;67.00;;;;;;5029764;28;20060;-64
2022/02/17 01:26:58;;;;;;;10.02;3.47;;;17.90;67.00;;;;;;5031970;28;20018;-64
2022/02/17 01:29:23;;;;;;;11.77;3.80;;;17.90;67.00;;;;;;5030249;28;20048;-63
2022/02/17 01:31:49;;;;;;;10.52;3.38;;;17.90;67.00;;;;;;5029426;28;20071;-64
2022/02/17 01:34:15;;;;;;;8.60;3.60;;;17.90;67.00;;;;;;5029633;28;20029;-64
2022/02/17 01:36:40;;;;;;;10.05;3.78;;;17.90;67.00;;;;;;5029439;28;20493;-64
2022/02/17 01:39:06;;;;;;;11.15;3.55;;;17.90;67.00;;;;;;5029300;28;20104;-64
2022/02/17 01:41:31;;;;;;;11.00;3.70;;;17.90;67.00;;;;;;5029602;28;20025;-64
2022/02/17 01:44:02;;;;;;;11.13;3.40;;;17.90;66.90;;;;;;5028032;28;20026;-63
2022/02/17 01:46:40;;;;;;;10.27;3.63;;;17.90;66.90;;;;;;5027853;28;20405;-64
2022/02/17 01:49:07;;;;;;;10.30;3.55;;;17.80;66.90;;;;;;5029374;28;20076;-64
2022/02/17 01:51:32;;;;;;;10.65;3.65;;;17.80;66.90;;;;;;5029041;28;20505;-64
2022/02/17 01:54:02;;;;;;;11.02;3.83;;;17.80;66.90;;;;;;5029823;28;20128;-64
2022/02/17 01:56:28;;;;;;;9.27;3.65;;;17.80;66.90;;;;;;5028941;28;20028;-64
2022/02/17 01:58:54;;;;;;;10.95;3.75;;;17.80;66.90;;;;;;5027553;28;20033;-64
2022/02/17 02:01:21;;;;;;;10.40;3.20;;;17.80;66.90;;;;;;5060966;28;20108;-63
2022/02/17 02:03:47;;;;;;;10.65;3.53;;;17.80;66.80;;;;;;5060978;28;20373;-63
2022/02/17 02:06:13;;;;;;;11.02;3.42;;;17.80;66.90;;;;;;5028763;28;20032;-64
2022/02/17 02:08:38;;;;;;;11.50;3.53;;;17.80;66.90;;;;;;5030770;28;20063;-63
2022/02/17 02:11:04;;;;;;;8.80;3.42;;;17.80;66.80;;;;;;5028566;28;20027;-63
2022/02/17 02:13:30;;;;;;;9.02;3.50;;;17.80;66.90;;;;;;5060760;28;20643;-64
2022/02/17 02:15:56;;;;;;;13.93;3.45;;;17.80;66.90;;;;;;5028872;28;20049;-63
2022/02/17 02:18:22;;;;;;;11.82;3.58;;;17.70;66.80;;;;;;5028066;28;20080;-64
2022/02/17 02:20:52;;;;;;;10.40;3.35;;;17.70;66.90;;;;;;5030306;28;20022;-64
2022/02/17 02:23:18;;;;;;;12.27;3.35;;;17.70;66.80;;;;;;5027215;28;20049;-63
2022/02/17 02:25:45;;;;;;;9.75;3.30;;;17.70;66.80;;;;;;5023504;28;20517;-64
2022/02/17 02:28:18;;;;;;;11.63;3.60;;;17.70;66.80;;;;;;5028658;28;20125;-64
2022/02/17 02:30:44;;;;;;;10.07;3.20;;;17.70;66.80;;;;;;5026154;28;20058;-63
2022/02/17 02:33:10;;;;;;;9.07;3.00;;;17.70;66.80;;;;;;5027956;28;20046;-64
2022/02/17 02:35:35;;;;;;;11.13;3.55;;;17.70;66.80;;;;;;5028019;28;20029;-64
2022/02/17 02:38:01;;;;;;;10.70;3.30;;;17.70;66.80;;;;;;5028217;28;20069;-63
2022/02/17 02:40:26;;;;;;;10.52;3.40;;;17.60;66.70;;;;;;5028264;28;20064;-64
2022/02/17 02:42:52;;;;;;;11.18;3.40;;;17.70;66.90;;;;;;5028385;28;20445;-63
2022/02/17 02:45:18;;;;;;;10.85;3.20;;;17.60;66.70;;;;;;5028232;28;20514;-63
2022/02/17 02:47:43;;;;;;;12.88;3.70;;;17.60;66.80;;;;;;5031091;28;20439;-64
2022/02/17 02:50:09;;;;;;;9.85;3.20;;;17.60;66.80;;;;;;5026615;28;20530;-63
2022/02/17 02:52:35;;;;;;;8.45;3.33;;;17.60;66.80;;;;;;5026579;28;20453;-63
2022/02/17 02:55:01;;;;;;;11.32;3.72;;;17.60;66.70;;;;;;5044695;28;20030;-64
2022/02/17 02:57:27;;;;;;;10.05;3.47;;;17.60;66.80;;;;;;5027038;28;20449;-64
2022/02/17 02:59:52;;;;;;;11.05;3.50;;;17.60;66.70;;;;;;5030502;28;20494;-64
2022/02/17 03:02:18;;;;;;;9.68;3.50;;;17.60;66.70;;;;;;5026586;28;20029;-64
2022/02/17 03:04:44;;;;;;;10.00;3.35;;;17.60;66.70;;;;;;5025841;28;20049;-64
2022/02/17 03:07:09;;;;;;;11.10;3.67;;;17.60;66.70;;;;;;5027528;28;20033;-64
2022/02/17 03:09:35;;;;;;;10.50;3.33;;;17.60;66.70;;;;;;5027889;28;20053;-64
2022/02/17 03:12:01;;;;;;;10.45;3.30;;;17.60;66.70;;;;;;5029325;28;20044;-64
2022/02/17 03:14:26;;;;;;;11.68;3.53;;;17.60;66.70;;;;;;5028952;28;20038;-64
2022/02/17 03:16:52;;;;;;;11.30;3.65;;;17.60;66.70;;;;;;5027633;28;20033;-64
2022/02/17 03:19:17;;;;;;;11.57;3.70;;;17.50;66.70;;;;;;5025819;28;20037;-63
2022/02/17 03:21:43;;;;;;;9.18;3.40;;;17.60;66.70;;;;;;5027709;28;20038;-64
2022/02/17 03:24:09;;;;;;;10.20;3.35;;;17.50;66.70;;;;;;5026999;28;20108;-64
2022/02/17 03:26:34;;;;;;;12.05;3.45;;;17.50;66.70;;;;;;5029582;28;20116;-62
2022/02/17 03:29:00;;;;;;;11.63;3.58;;;17.50;66.70;;;;;;5027402;28;20045;-64
2022/02/17 03:31:26;;;;;;;11.57;3.60;;;17.50;66.70;;;;;;5025758;28;20037;-64
2022/02/17 03:33:52;;;;;;;9.63;3.17;;;17.50;66.70;;;;;;5027089;28;20049;-64
2022/02/17 03:36:17;;;;;;;13.57;4.00;;;17.50;66.60;;;;;;5027575;28;20032;-63
2022/02/17 03:38:43;;;;;;;10.95;3.50;;;17.50;66.70;;;;;;5027217;28;20517;-63
2022/02/17 03:41:09;;;;;;;15.68;3.65;;;17.50;66.60;;;;;;5026035;28;20060;-64
2022/02/17 03:43:34;;;;;;;10.40;3.05;;;17.50;66.70;;;;;;5026003;28;20108;-64
2022/02/17 03:46:00;;;;;;;10.75;3.05;;;17.50;66.70;;;;;;5026687;28;20033;-65
2022/02/17 03:48:26;;;;;;;13.73;3.40;;;17.50;66.60;;;;;;5026833;28;20033;-64
2022/02/17 03:50:51;;;;;;;11.23;3.58;;;17.50;66.70;;;;;;5029929;28;20036;-64
2022/02/17 03:53:17;;;;;;;12.65;3.95;;;17.50;66.60;;;;;;5026950;28;20130;-63
2022/02/17 03:55:43;;;;;;;10.38;3.70;;;17.50;66.70;;;;;;5028671;28;20017;-64
2022/02/17 03:58:08;;;;;;;10.18;3.45;;;17.50;66.80;;;;;;5037155;28;20501;-64
2022/02/17 04:00:34;;;;;;;11.00;3.28;;;17.50;66.80;;;;;;5027187;28;20562;-63
2022/02/17 04:03:03;;;;;;;12.55;3.40;;;17.50;66.70;;;;;;5028740;28;20513;-64
2022/02/17 04:05:29;;;;;;;12.82;3.55;;;17.50;66.70;;;;;;5026727;28;20032;-63
2022/02/17 04:07:55;;;;;;;10.23;3.10;;;17.50;67.00;;;;;;5027021;28;20037;-63
2022/02/17 04:10:21;;;;;;;9.68;3.17;;;17.40;66.90;;;;;;5025512;28;20053;-64
2022/02/17 04:12:47;;;;;;;12.82;3.50;;;17.40;67.00;;;;;;5026904;28;20033;-63
2022/02/17 04:15:12;;;;;;;13.75;3.50;;;17.40;67.00;;;;;;5028198;28;20029;-64
2022/02/17 04:17:38;;;;;;;13.60;3.72;;;17.40;66.90;;;;;;5026976;28;20033;-63
2022/02/17 04:20:04;;;;;;;13.10;3.47;;;17.40;66.90;;;;;;5057172;28;20057;-63
2022/02/17 04:22:30;;;;;;;10.27;3.40;;;17.40;67.00;;;;;;5025186;28;20026;-63
2022/02/17 04:24:56;;;;;;;13.55;3.55;;;17.40;66.90;;;;;;5026794;28;20079;-64
2022/02/17 04:27:21;;;;;;;10.52;3.40;;;17.40;66.90;;;;;;5026767;28;20047;-63
2022/02/17 04:29:47;;;;;;;14.38;3.90;;;17.40;66.90;;;;;;5029247;28;20022;-64
2022/02/17 04:32:12;;;;;;;13.77;3.78;;;17.30;66.90;;;;;;5026321;28;20044;-63
2022/02/17 04:34:39;;;;;;;13.43;3.78;;;17.30;66.80;;;;;;5025435;28;20067;-63
2022/02/17 04:37:06;;;;;;;13.35;3.97;;;17.30;66.90;;;;;;5026898;28;20445;-63
2022/02/17 04:39:31;;;;;;;11.30;3.22;;;17.30;66.80;;;;;;5026876;28;20069;-63
2022/02/17 04:44:41;;;;;;;13.65;3.85;;;17.30;66.80;;;;;;5027464;28;20517;-63
2022/02/17 04:47:07;;;;;;;13.00;3.80;;;17.30;66.80;;;;;;5026331;28;20033;-64
2022/02/17 04:49:32;;;;;;;14.32;4.10;;;17.30;66.90;;;;;;5025237;28;20021;-63
2022/02/17 04:51:58;;;;;;;16.13;4.13;;;17.30;66.90;;;;;;5026845;28;20375;-63
2022/02/17 04:54:24;;;;;;;13.05;3.50;;;17.30;66.80;;;;;;5026004;28;20037;-64
2022/02/17 04:56:49;;;;;;;14.43;3.72;;;17.30;66.90;;;;;;5028732;28;20044;-64
2022/02/17 04:59:15;;;;;;;13.40;3.72;;;17.30;66.90;;;;;;5028356;28;20429;-63
2022/02/17 05:01:41;;;;;;;14.82;3.92;;;17.30;66.90;;;;;;5028626;28;20072;-63
2022/02/17 05:04:06;;;;;;;12.77;3.53;;;17.20;66.80;;;;;;5030319;28;20024;-63
2022/02/17 05:06:32;;;;;;;17.83;3.95;;;17.20;66.80;;;;;;5030348;28;20165;-63
2022/02/17 05:08:58;;;;;;;12.48;4.20;;;17.30;66.90;;;;;;5032880;28;20025;-63
2022/02/17 05:11:23;;;;;;;13.48;3.72;;;17.20;66.80;;;;;;5030251;28;20033;-63
2022/02/17 05:13:49;;;;;;;12.60;3.75;;;17.20;66.80;;;;;;5028635;28;20518;-64
2022/02/17 05:16:15;;;;;;;14.75;3.97;;;17.20;66.80;;;;;;5029737;28;20040;-63
2022/02/17 05:18:40;;;;;;;13.27;3.92;;;17.20;66.70;;;;;;5030144;28;20049;-64
2022/02/17 05:21:06;;;;;;;13.88;4.20;;;17.20;66.80;;;;;;5031409;28;20021;-64
2022/02/17 05:23:32;;;;;;;15.95;4.30;;;17.20;66.80;;;;;;5031503;28;20091;-64
2022/02/17 05:25:58;;;;;;;16.77;4.20;;;17.20;66.70;;;;;;5029975;28;20025;-63
2022/02/17 05:28:23;;;;;;;12.63;3.80;;;17.20;66.70;;;;;;5028684;28;20037;-63
2022/02/17 05:30:49;;;;;;;15.18;4.05;;;17.20;66.80;;;;;;5029510;28;20050;-64
2022/02/17 05:33:15;;;;;;;13.48;3.90;;;17.20;66.80;;;;;;5030436;28;20079;-63
2022/02/17 05:35:40;;;;;;;12.30;3.60;;;17.20;66.80;;;;;;5030168;28;20021;-64
2022/02/17 05:38:06;;;;;;;13.05;3.85;;;17.10;66.70;;;;;;5028237;28;20033;-63
2022/02/17 05:40:32;;;;;;;13.65;3.72;;;17.20;66.70;;;;;;5028240;28;20026;-64
2022/02/17 05:42:58;;;;;;;13.20;3.78;;;17.10;66.70;;;;;;5029505;28;20543;-62
2022/02/17 05:45:24;;;;;;;15.30;3.85;;;17.20;66.80;;;;;;5029575;28;20031;-64
2022/02/17 05:47:49;;;;;;;11.90;3.80;;;17.10;66.70;;;;;;5032110;28;20040;-64
2022/02/17 05:50:15;;;;;;;12.98;4.25;;;17.10;66.70;;;;;;5029643;28;20584;-64
2022/02/17 05:52:41;;;;;;;13.68;3.97;;;17.10;66.70;;;;;;5027863;28;20414;-63
2022/02/17 05:55:07;;;;;;;14.25;4.40;;;17.10;66.70;;;;;;5029576;28;20025;-64
2022/02/17 05:57:33;;;;;;;15.55;4.13;;;17.10;66.70;;;;;;5029119;28;20037;-63
2022/02/17 05:59:59;;;;;;;14.27;3.97;;;17.10;66.60;;;;;;5031524;28;20018;-64
2022/02/17 06:02:26;;;;;;;12.10;3.67;;;17.10;66.70;;;;;;5029581;28;20393;-64
2022/02/17 06:04:52;;;;;;;16.25;4.22;;;17.10;66.60;;;;;;5029103;28;20041;-64
2022/02/17 06:07:18;;;;;;;14.35;3.65;;;17.10;66.60;;;;;;5027813;28;20068;-63
2022/02/17 06:09:44;;;;;;;13.30;3.60;;;17.10;66.60;;;;;;5028200;28;20626;-63
2022/02/17 06:12:10;;;;;;;14.10;3.80;;;17.00;66.60;;;;;;5029693;28;20026;-63
2022/02/17 06:14:36;;;;;;;13.25;3.97;;;17.10;66.60;;;;;;5029203;28;20453;-62
2022/02/17 06:17:02;;;;;;;12.57;4.03;;;17.00;66.60;;;;;;5027570;28;20025;-64
2022/02/17 06:19:28;;;;;;;13.25;3.88;;;17.00;66.60;;;;;;5027517;28;20029;-64
2022/02/17 06:21:54;;;;;;;13.50;4.28;;;17.00;66.50;;;;;;5029054;28;20021;-64
2022/02/17 06:24:20;;;;;;;13.13;3.80;;;17.00;66.50;;;;;;5028791;28;20030;-63
2022/02/17 06:26:46;;;;;;;13.13;4.03;;;17.00;66.50;;;;;;5030905;28;20470;-63
2022/02/17 06:29:12;;;;;;;13.10;3.53;;;17.00;66.50;;;;;;5028721;28;20056;-64
2022/02/17 06:31:37;;;;;;;12.93;4.03;;;17.00;66.40;;;;;;5027091;28;20479;-64
2022/02/17 06:34:03;;;;;;;13.75;3.90;;;17.00;67.50;;;;;;5028391;28;20437;-63
2022/02/17 06:36:29;;;;;;;12.77;3.63;;;17.00;66.40;;;;;;5028775;28;20018;-64
2022/02/17 06:38:54;;;;;;;12.25;3.92;;;17.00;66.40;;;;;;5031214;28;20037;-64
2022/02/17 06:41:21;;;;;;;15.15;4.13;;;17.00;66.40;;;;;;5028022;28;20064;-63
2022/02/17 06:43:47;;;;;;;14.35;3.60;;;17.00;66.30;;;;;;5028543;28;20424;-64
2022/02/17 06:46:12;;;;;;;15.63;4.30;;;17.00;66.40;;;;;;5027094;28;20060;-64
2022/02/17 06:48:38;;;;;;;14.73;4.00;;;17.00;66.40;;;;;;5028428;28;20148;-63
2022/02/17 06:51:04;;;;;;;15.45;4.03;;;16.90;66.70;;;;;;5029735;28;20470;-63
2022/02/17 06:53:29;;;;;;;12.88;3.83;;;17.00;66.40;;;;;;5027958;28;20030;-63
2022/02/17 06:55:55;;;;;;;14.05;3.97;;;16.90;66.20;;;;;;5026439;28;20025;-62
2022/02/17 06:58:20;;;;;;;13.73;3.53;;;16.90;66.20;;;;;;5026725;28;20033;-64
2022/02/17 07:00:46;;;;;;;15.10;3.95;;;16.90;66.20;;;;;;5028211;28;20037;-64
2022/02/17 07:03:12;;;;;;;14.23;4.15;;;16.90;66.10;;;;;;5028719;28;20029;-64
2022/02/17 07:05:37;;;;;;;17.48;4.78;;;16.90;67.20;;;;;;5030083;28;20025;-64
2022/02/17 07:08:04;;;;;;;15.60;4.10;;;16.90;66.20;;;;;;5027932;28;20124;-64
2022/02/17 07:13:13;;;;;;;13.45;4.05;;;16.90;66.20;;;;;;5027985;28;20044;-64
2022/02/17 07:15:39;;;;;;;12.20;4.03;;;16.90;66.30;;;;;;5027925;28;20116;-64
2022/02/17 07:18:07;;;;;;;15.85;3.97;;;16.90;66.30;;;;;;5029311;28;20029;-63
2022/02/17 07:20:34;;;;;;;16.02;4.50;;;16.90;66.30;;;;;;5029332;28;20076;-64
2022/02/17 07:22:59;;;;;;;15.48;3.78;;;16.90;66.20;;;;;;5027524;28;20509;-63
2022/02/17 07:25:25;;;;;;;15.77;4.32;;;16.90;66.30;;;;;;5025627;28;20028;-63
2022/02/17 07:27:51;;;;;;;13.00;3.78;;;16.90;66.20;;;;;;5027958;28;20022;-64
2022/02/17 07:30:16;;;;;;;16.58;4.43;;;16.90;66.30;;;;;;5027963;28;20417;-63
2022/02/17 07:32:44;;;;;;;16.60;4.03;;;16.90;66.30;;;;;;5028376;28;20563;-63
2022/02/17 07:35:10;;;;;;;15.02;4.20;;;16.90;66.10;;;;;;5026044;28;20037;-64
2022/02/17 07:37:36;;;;;;;13.90;4.15;;;16.90;66.20;;;;;;5026141;28;20029;-63
2022/02/17 07:40:02;;;;;;;14.43;4.13;;;16.90;66.20;;;;;;5025577;28;20485;-63
2022/02/17 07:42:27;;;;;;;16.30;4.50;;;16.80;66.10;;;;;;5027693;28;20475;-63
2022/02/17 07:44:56;;;;;;;14.52;4.10;;;16.80;66.20;;;;;;5029874;28;20064;-64
2022/02/17 07:47:22;;;;;;;15.13;4.15;;;16.80;66.10;;;;;;5027070;28;20028;-63
2022/02/17 07:49:48;;;;;;;14.73;3.95;;;16.80;66.10;;;;;;5026043;28;20030;-64
2022/02/17 07:52:14;;;;;;;12.73;4.22;;;16.80;66.10;;;;;;5027205;28;20032;-63
2022/02/17 07:54:39;;;;;;;13.75;4.13;;;16.80;66.20;;;;;;5027096;28;20034;-63
2022/02/17 07:57:05;;;;;;;16.67;4.20;;;16.80;66.20;;;;;;5028950;28;20481;-64
2022/02/17 07:59:31;;;;;;;15.73;4.07;;;16.80;66.20;;;;;;5028458;28;20029;-63
2022/02/17 08:01:57;;;;;;;17.35;4.40;;;16.80;66.10;;;;;;5027309;28;20036;-63
2022/02/17 08:04:23;;;;;;;16.38;4.20;;;16.80;66.20;;;;;;5025675;28;20072;-64
2022/02/17 08:06:49;;;;;;;13.85;3.95;;;16.80;66.20;;;;;;5027130;28;20140;-64
2022/02/17 08:09:14;;;;;;;12.82;3.60;;;16.80;66.20;;;;;;5027698;28;20096;-64
2022/02/17 08:11:40;;;;;;;15.27;4.15;;;16.80;66.20;;;;;;5027438;28;20048;-63
2022/02/17 08:14:06;;;;;;;13.55;4.13;;;16.80;66.20;;;;;;5025448;28;20041;-64
2022/02/17 08:16:31;;;;;;;15.98;4.28;;;16.80;66.10;;;;;;5025516;28;20025;-63
2022/02/17 08:18:57;;;;;;;16.05;4.38;;;16.80;66.20;;;;;;5027123;28;20549;-63
2022/02/17 08:21:22;;;;;;;15.65;4.25;;;16.80;66.10;;;;;;5027054;28;20029;-64
2022/02/17 08:23:49;;;;;;;15.43;3.95;;;16.80;66.10;;;;;;5029167;28;20021;-64
2022/02/17 08:26:15;;;;;;;14.50;4.00;;;16.80;66.10;;;;;;5026941;28;20413;-64
2022/02/17 08:28:40;;;;;;;16.58;4.30;;;16.70;66.10;;;;;;5025411;28;20033;-63
2022/02/17 08:31:06;;;;;;;16.40;4.38;;;16.70;66.10;;;;;;5026617;28;20132;-64
2022/02/17 08:33:32;;;;;;;16.00;3.72;;;16.70;66.10;;;;;;5028820;28;20073;-64
2022/02/17 08:35:57;;;;;;;15.55;3.42;;;16.70;66.10;;;;;;5033267;28;20532;-62
2022/02/17 08:38:30;;;;;;;14.50;4.32;;;16.70;66.10;;;;;;5030473;28;20402;-64
2022/02/17 08:40:56;;;;;;;13.77;4.30;;;16.70;66.10;;;;;;5030469;28;20057;-63
2022/02/17 08:43:21;;;;;;;16.20;4.70;;;16.70;66.10;;;;;;5029151;28;20060;-63
2022/02/17 08:45:50;;;;;;;16.45;4.38;;;16.70;66.10;;;;;;5031307;28;20021;-63
2022/02/17 08:48:16;;;;;;;14.32;4.05;;;16.70;66.10;;;;;;5030887;28;20033;-63
2022/02/17 08:50:44;;;;;;;15.20;4.32;;;16.70;66.40;;;;;;5031384;28;20445;-63
2022/02/17 08:53:09;;;;;;;14.07;3.70;;;16.70;66.60;;;;;;5028773;28;20033;-63
2022/02/17 08:55:35;;;;;;;13.25;4.10;;;16.70;66.80;;;;;;5031894;28;20056;-64
2022/02/17 08:58:01;;;;;;;12.55;3.85;;;16.70;67.10;;;;;;5030282;28;20029;-63
2022/02/17 09:00:26;;;;;;;15.20;4.20;;;16.70;67.20;;;;;;5030352;28;20501;-64
2022/02/17 09:02:52;;;;;;;15.23;4.30;;;16.70;67.00;;;;;;5035718;28;20032;-63
2022/02/17 09:05:18;;;;;;;14.95;3.85;;;16.70;67.20;;;;;;5031061;28;20029;-63
2022/02/17 09:07:43;;;;;;;13.60;3.63;;;16.70;67.20;;;;;;5028352;28;20040;-63
2022/02/17 09:10:09;;;;;;;13.30;3.83;;;16.70;67.30;;;;;;5030079;28;20033;-63
2022/02/17 09:12:36;;;;;;;15.27;4.25;;;16.70;67.20;;;;;;5030186;28;20428;-63
2022/02/17 09:15:09;;;;;;;13.18;3.85;;;16.70;67.30;;;;;;5031750;28;20072;-63
2022/02/17 09:17:35;;;;;;;15.23;4.18;;;16.70;67.50;;;;;;5031861;28;20029;-63
2022/02/17 09:20:02;;;;;;;14.85;3.88;;;16.70;67.50;;;;;;5029893;28;20061;-63
2022/02/17 09:22:29;;;;;;;13.73;3.83;;;16.70;67.50;;;;;;5028344;28;20026;-64
2022/02/17 09:24:54;;;;;;;15.90;4.40;;;16.70;67.50;;;;;;5029821;28;20178;-63
2022/02/17 09:27:20;;;;;;;13.90;3.70;;;16.70;67.50;;;;;;5029930;28;20037;-63
2022/02/17 09:29:46;;;;;;;17.52;3.67;;;16.70;67.70;;;;;;5030856;28;20057;-63
2022/02/17 09:32:12;;;;;;;12.35;3.67;;;16.70;67.70;;;;;;5028301;28;20033;-63
2022/02/17 09:34:40;;;;;;;13.93;3.65;;;16.70;67.80;;;;;;5028313;28;20045;-63
2022/02/17 09:37:06;;;;;;;14.52;3.88;;;16.70;69.00;;;;;;5029276;28;20018;-64
2022/02/17 09:39:33;;;;;;;11.45;3.53;;;16.70;67.90;;;;;;5029756;28;20030;-63
2022/02/17 09:42:03;;;;;;;12.55;3.42;;;16.70;67.70;;;;;;5028427;28;20073;-62
2022/02/17 09:44:29;;;;;;;14.85;4.22;;;16.70;67.60;;;;;;5050826;28;20108;-63
2022/02/17 09:46:55;;;;;;;16.73;3.85;;;16.70;67.80;;;;;;5034494;28;20113;-63
2022/02/17 09:49:21;;;;;;;13.18;3.95;;;16.70;67.80;;;;;;5061153;28;20068;-63
2022/02/17 09:51:49;;;;;;;13.15;3.45;;;16.70;67.80;;;;;;5029038;28;20117;-63
2022/02/17 09:54:15;;;;;;;12.70;3.58;;;16.70;67.90;;;;;;5029314;28;20040;-63
2022/02/17 09:56:44;;;;;;;14.32;4.20;;;16.70;67.80;;;;;;5063501;28;20037;-63
2022/02/17 09:59:10;;;;;;;15.63;4.10;;;16.70;67.80;;;;;;5030945;28;20482;-63
2022/02/17 10:01:37;;;;;;;14.32;3.67;;;16.70;67.90;;;;;;5034308;28;20053;-63
2022/02/17 10:04:15;;;;;;;13.43;3.83;;;16.70;67.80;;;;;;5028870;28;20486;-63
2022/02/17 10:06:42;;;;;;;12.93;3.92;;;16.70;68.00;;;;;;5027883;28;20037;-63
2022/02/17 10:09:08;;;;;;;14.32;3.50;;;16.70;67.90;;;;;;5030290;28;20041;-63
2022/02/17 10:11:34;;;;;;;14.73;3.65;;;16.70;67.90;;;;;;5029128;28;20072;-63
2022/02/17 10:14:04;;;;;;;13.05;3.60;;;16.70;67.90;;;;;;5027435;28;20049;-63
2022/02/17 10:16:50;;;;;;;14.43;3.65;;;16.70;67.90;;;;;;5029124;28;20034;-63
2022/02/17 10:19:16;;;;;;;14.32;3.58;;;16.80;68.00;;;;;;5027739;28;20033;-65
2022/02/17 10:21:42;;;;;;;14.60;3.97;;;16.90;68.20;;;;;;5033680;28;20092;-65
2022/02/17 10:24:07;;;;;;;13.43;3.38;;;16.90;68.20;;;;;;5029783;28;20389;-65
2022/02/17 10:26:33;;;;;;;21.75;4.20;;;16.90;68.50;;;;;;5030993;28;20532;-65
2022/02/17 10:29:01;;;;;;;17.80;6.53;;;16.90;68.10;;;;;;5028258;28;20490;-65
2022/02/17 10:31:28;;;;;;;18.38;5.93;;;17.20;69.10;;;;;;5029478;28;20048;-65
2022/02/17 10:33:54;;;;;;;17.17;5.95;;;17.40;67.50;;;;;;5029847;28;20042;-65
2022/02/17 10:36:35;;;;;;;16.55;5.18;;;17.60;67.20;;;;;;5040975;28;20116;-62
2022/02/17 10:39:22;;;;;;;17.23;5.30;;;17.70;67.00;;;;;;5033171;28;20044;-62
2022/02/17 10:41:49;;;;;;;15.77;5.22;;;17.90;66.50;;;;;;5030350;28;20120;-61
2022/02/17 10:44:20;;;;;;;16.17;5.10;;;18.00;66.30;;;;;;5027764;28;20462;-60
2022/02/17 10:46:46;;;;;;;14.18;5.05;;;18.00;66.20;;;;;;5027046;28;20037;-61
2022/02/17 10:49:15;;;;;;;13.80;4.93;;;18.00;66.00;;;;;;5026373;28;20040;-60
2022/02/17 10:51:41;;;;;;;14.20;4.63;;;18.10;66.10;;;;;;5028234;28;20049;-62
2022/02/17 10:54:07;;;;;;;15.20;5.30;;;18.10;66.00;;;;;;5028786;28;20076;-61
2022/02/17 10:56:33;;;;;;;15.18;4.85;;;18.20;66.00;;;;;;5029910;28;20022;-61
2022/02/17 10:59:05;;;;;;;15.63;5.20;;;18.30;65.90;;;;;;5028569;28;20041;-61
2022/02/17 11:01:31;;;;;;;13.52;4.65;;;18.40;66.80;;;;;;5027950;28;20029;-62
2022/02/17 11:03:57;;;;;;;14.32;5.03;;;18.30;65.70;;;;;;5026437;28;20018;-62
2022/02/17 11:06:22;;;;;;;15.15;4.82;;;18.40;65.70;;;;;;5031378;28;20042;-62
2022/02/17 11:08:49;;;;;;;13.85;4.80;;;18.40;65.60;;;;;;5029487;28;20502;-62
2022/02/17 11:11:16;;;;;;;14.48;5.00;;;18.30;65.60;;;;;;5059406;28;20036;-62
2022/02/17 11:13:45;;;;;;;14.95;4.22;;;18.30;65.60;;;;;;5027757;28;20528;-62
2022/02/17 11:16:15;;;;;;;13.32;5.03;;;18.40;65.50;;;;;;5026611;28;20033;-62
2022/02/17 11:18:41;;;;;;;13.35;4.50;;;18.40;65.40;;;;;;5044675;28;20857;-62
2022/02/17 11:21:07;;;;;;;11.63;4.05;;;18.40;65.30;;;;;;5029426;28;20032;-63
2022/02/17 11:23:34;;;;;;;15.68;4.63;;;18.40;65.30;;;;;;5027621;28;20041;-62
2022/02/17 11:26:00;;;;;;;13.75;4.63;;;18.50;65.10;;;;;;5026512;28;20493;-62
2022/02/17 11:28:35;;;;;;;13.30;4.63;;;18.60;64.90;;;;;;5026269;28;20029;-62
2022/02/17 11:31:03;;;;;;;13.18;4.65;;;18.60;64.60;;;;;;5056146;28;20061;-62
2022/02/17 11:33:38;;;;;;;13.00;4.28;;;18.70;64.30;;;;;;5027760;28;20045;-62
2022/02/17 11:36:22;;;;;;;14.75;4.85;;;18.90;64.20;;;;;;5029562;28;20026;-61
2022/02/17 11:38:59;;;;;;;11.82;4.47;;;19.00;64.10;;;;;;5029149;28;20053;-60
2022/02/17 11:41:33;;;;;;;11.65;4.40;;;19.00;63.80;;;;;;5027721;28;20029;-61
2022/02/17 11:44:21;;;;;;;12.00;4.30;;;19.10;63.50;;;;;;5025955;28;20092;-61
2022/02/17 11:46:52;;;;;;;12.68;4.10;;;19.10;63.40;;;;;;5026871;28;20401;-61
2022/02/17 11:49:29;;;;;;;13.07;4.65;;;19.20;63.50;;;;;;5027376;28;20705;-62
2022/02/17 11:52:14;;;;;;;12.68;4.78;;;19.20;63.80;;;;;;5028022;28;20071;-62
2022/02/17 11:54:40;;;;;;;15.13;4.80;;;19.30;63.90;;;;;;5014046;28;20131;-62
2022/02/17 11:57:26;;;;;;;13.10;4.60;;;19.30;64.00;;;;;;5028666;28;20080;-63
2022/02/17 11:59:52;;;;;;;12.20;4.82;;;19.30;64.00;;;;;;5056556;28;20037;-62
2022/02/17 12:02:17;;;;;;;12.77;4.70;;;19.40;64.00;;;;;;5042284;28;20040;-62
2022/02/17 12:04:43;;;;;;;12.48;4.78;;;19.40;63.80;;;;;;5027501;28;20040;-63
2022/02/17 12:07:31;;;;;;;13.93;4.65;;;19.50;63.80;;;;;;5058495;28;20100;-62
2022/02/17 12:09:57;;;;;;;13.48;4.47;;;19.60;63.70;;;;;;5026328;28;20079;-63
2022/02/17 12:12:25;;;;;;;13.18;4.60;;;19.60;63.60;;;;;;5025441;28;20030;-62
2022/02/17 12:14:52;;;;;;;13.63;4.20;;;19.80;63.80;;;;;;5028978;28;20030;-64
2022/02/17 12:17:31;;;;;;;13.13;4.50;;;19.80;63.50;;;;;;5027079;28;20025;-63
2022/02/17 12:20:10;;;;;;;15.90;4.47;;;19.80;63.30;;;;;;5027229;28;20040;-63
2022/02/17 12:22:36;;;;;;;12.93;4.85;;;19.80;63.40;;;;;;5025513;28;20022;-62
2022/02/17 12:25:43;;;;;;;13.90;4.88;;;19.80;63.20;;;;;;5027126;28;20037;-63
2022/02/17 12:28:13;;;;;;;12.98;4.25;;;19.80;63.10;;;;;;5025508;28;20518;-64
2022/02/17 12:30:52;;;;;;;12.60;4.05;;;19.90;63.00;;;;;;5026318;28;20038;-60
2022/02/17 12:33:27;;;;;;;13.85;4.65;;;19.90;62.80;;;;;;5027563;28;20034;-60
2022/02/17 12:36:00;;;;;;;12.43;4.63;;;20.00;62.70;;;;;;5030078;28;20026;-62
2022/02/17 12:38:31;;;;;;;12.10;4.18;;;20.00;62.60;;;;;;5027622;28;20033;-61
2022/02/17 12:40:56;;;;;;;12.35;4.60;;;20.10;62.60;;;;;;5025657;28;20596;-61
2022/02/17 12:43:26;;;;;;;11.95;4.20;;;20.10;62.40;;;;;;5025593;28;20034;-61